Terminal Aerodrome Forecast
Issued by NWS

Home | Current Version | Previous Version | Graphics & Text | Print | Product List | Glossary On
Versions: 1 2 3 4 5 6 7 8 9 10 11 12 13 14 15
000
FTUS43 KBIS 131100
TAFDIK
TAF
KDIK 131135Z 1312/1412 21009KT P6SM BKN150
     FM131600 30014G23KT P6SM BKN035
     FM140100 31008KT P6SM BKN050
     FM140500 28008KT P6SM SCT050=

USA.gov is the U.S. government's official web portal to all federal, state and local government web resources and services.